Terminal Aerodrome Forecast
Issued by NWS

Home | Current Version | Previous Version | Text Only | Print | Product List | Glossary On
Versions: 1 2 3 4 5 6 7 8 9 10 11 12 13 14 15 16 17 18 19 20 21 22 23 24 25 26
734
FTUS46 KEKA 270810 AAB
TAFCEC
TAF AMD
KCEC 270810Z 2708/2806 VRB03KT P6SM SCT005 OVC011
      TEMPO 2708/2712 2SM BR BKN005
     FM271200 VRB03KT 1SM BR OVC003
     FM271700 24005KT P6SM OVC015
     FM280500 VRB03KT 6SM BR OVC008=

USA.gov is the U.S. government's official web portal to all federal, state and local government web resources and services.